Ana Sayfa
METAR-TAF:

METAR-TAF

Havaalanları :

Effingham County Memorial Airport

Effingham, Illinois, Amerika Birleşik Devletleri

Enlem: 39-04-14N, Boylam: 088-32-00W, yükseklik: 179 m

Güncel hava durumu gözlemi

Rapor saat 12:15 UTC de 43 dakika önce yapıldı.
Rüzgar doğu/güneydoğudan 7 kt
Sıcaklık 23°C
Nem 61%
Basınç 1016 hPa
Görüş mesafesi: 16.1 km
Açık gökyüzü

METAR: K1H2 161215Z AUTO 11007KT 10SM CLR 23/15 A2999 RMK AO2 T02260147

Saat: 07:58 (12:58 UTC)


TAF: eksik

4.000'den fazla havaalanı için hava durumu gözlemleri ve tahminleri (METAR ve TAF raporları).

Kullanılabilir istasyonlar harita üzerinde sarı ve kırmızı noktalarla gösterilir.

İstasyonun adını görmek için fareyi noktanın üzerinde gezdirin.

Sonrasında hava gözlem ve tahminlerini görmek için tıklayın.

Haritayı değiştirmek için: yaklaştırmak için siyah artı işaretli yeşil düğmeye ve uzaklaştırmak için de eksi işaretli düğmeye hızla tıklayın; bitişik haritalar için yeşil okları kullanın.


METAR-TAF: